createdAt,value
2019-01-30T00:01:34.637Z,6.77
2019-01-30T00:04:03.978Z,6.90
2019-01-30T00:06:34.153Z,6.70
2019-01-30T00:09:04.553Z,6.37
2019-01-30T00:11:33.819Z,6.70
2019-01-30T00:14:03.107Z,7.37
2019-01-30T00:16:32.679Z,6.93
2019-01-30T00:19:01.950Z,6.80
2019-01-30T00:21:31.673Z,7.00
2019-01-30T00:24:00.953Z,7.77
2019-01-30T00:26:30.276Z,7.73
2019-01-30T00:28:59.542Z,7.50
2019-01-30T00:31:28.838Z,5.97
2019-01-30T00:33:58.107Z,6.70
2019-01-30T00:36:27.792Z,7.57
2019-01-30T00:38:57.513Z,6.43
2019-01-30T00:41:26.907Z,6.50
2019-01-30T00:43:56.262Z,6.03
2019-01-30T00:46:25.931Z,6.97
2019-01-30T00:48:55.594Z,7.00
2019-01-30T00:51:25.207Z,6.27
2019-01-30T00:53:54.495Z,6.50
2019-01-30T00:56:23.821Z,6.23
2019-01-30T00:58:53.087Z,6.50
2019-01-30T01:01:23.773Z,6.37
2019-01-30T01:03:53.065Z,6.13
2019-01-30T01:06:22.768Z,6.07
2019-01-30T01:08:52.495Z,5.73
2019-01-30T01:11:21.778Z,6.53
2019-01-30T01:13:51.342Z,5.70
2019-01-30T01:16:20.588Z,5.80
2019-01-30T01:18:49.853Z,5.60
2019-01-30T01:21:19.146Z,6.20
2019-01-30T01:23:48.591Z,5.67
2019-01-30T01:26:17.859Z,5.80
2019-01-30T01:28:47.504Z,5.50
2019-01-30T01:31:17.039Z,5.67
2019-01-30T01:33:46.321Z,5.40
2019-01-30T01:36:15.725Z,5.53
2019-01-30T01:38:45.023Z,5.77
2019-01-30T01:41:14.302Z,5.40
2019-01-30T01:43:43.655Z,5.90
2019-01-30T01:46:13.313Z,5.27
2019-01-30T01:48:42.752Z,5.90
2019-01-30T01:51:12.322Z,5.43
2019-01-30T01:53:42.210Z,5.30
2019-01-30T01:56:11.833Z,5.57
2019-01-30T01:58:41.214Z,5.67
2019-01-30T02:01:10.840Z,5.23
2019-01-30T02:03:40.106Z,5.20
2019-01-30T02:06:09.642Z,5.23
2019-01-30T02:08:39.371Z,4.80
2019-01-30T02:11:08.610Z,5.60
2019-01-30T02:13:38.491Z,5.40
2019-01-30T02:16:08.085Z,5.90
2019-01-30T02:18:37.358Z,5.67
2019-01-30T02:21:06.872Z,5.97
2019-01-30T02:23:36.191Z,5.63
2019-01-30T02:26:06.505Z,5.77
2019-01-30T02:28:36.125Z,5.63
2019-01-30T02:31:05.443Z,6.40
2019-01-30T02:33:34.727Z,5.97
2019-01-30T02:36:04.614Z,6.37
2019-01-30T02:38:34.229Z,5.93
2019-01-30T02:41:03.515Z,5.50
2019-01-30T02:43:32.779Z,5.47
2019-01-30T02:46:02.479Z,6.13
2019-01-30T02:48:31.832Z,6.33
2019-01-30T02:51:01.568Z,6.00
2019-01-30T02:53:30.832Z,6.10
2019-01-30T02:56:00.195Z,6.80
2019-01-30T02:58:29.520Z,6.03
2019-01-30T03:00:59.693Z,6.90
2019-01-30T03:03:29.396Z,6.37
2019-01-30T03:05:58.662Z,6.97
2019-01-30T03:08:27.947Z,6.23
2019-01-30T03:10:57.210Z,6.57
2019-01-30T03:13:26.501Z,6.20
2019-01-30T03:15:55.792Z,6.00
2019-01-30T03:18:25.064Z,6.60
2019-01-30T03:20:54.339Z,5.70
2019-01-30T03:23:23.921Z,6.20
2019-01-30T03:25:53.225Z,5.60
2019-01-30T03:28:22.579Z,5.80
2019-01-30T03:30:51.841Z,5.93
2019-01-30T03:33:21.449Z,5.40
2019-01-30T03:35:50.800Z,5.50
2019-01-30T03:38:20.125Z,5.00
2019-01-30T03:40:49.793Z,5.90
2019-01-30T03:43:19.088Z,5.60
2019-01-30T03:45:48.332Z,5.60
2019-01-30T03:48:17.735Z,5.17
2019-01-30T03:50:47.099Z,5.10
2019-01-30T03:53:16.367Z,5.17
2019-01-30T03:55:45.903Z,5.40
2019-01-30T03:58:15.306Z,5.10
2019-01-30T04:00:47.594Z,5.33
2019-01-30T04:03:16.885Z,5.77
2019-01-30T04:05:46.164Z,5.37
2019-01-30T04:08:15.465Z,5.27
2019-01-30T04:10:44.749Z,5.77
2019-01-30T04:13:14.051Z,5.97
2019-01-30T04:15:43.674Z,9.23
2019-01-30T04:18:12.934Z,5.57
2019-01-30T04:20:42.211Z,5.63
2019-01-30T04:23:11.810Z,5.63
2019-01-30T04:25:41.158Z,5.73
2019-01-30T04:28:10.525Z,5.40
2019-01-30T04:30:39.779Z,5.60
2019-01-30T04:33:09.038Z,6.00
2019-01-30T04:35:38.335Z,5.60
2019-01-30T04:38:07.586Z,5.93
2019-01-30T04:40:37.189Z,5.63
2019-01-30T04:43:06.803Z,5.50
2019-01-30T04:45:37.051Z,5.77
2019-01-30T04:48:06.385Z,6.13
2019-01-30T04:50:35.661Z,5.73
2019-01-30T04:53:04.942Z,5.87
2019-01-30T04:55:34.264Z,5.07
2019-01-30T04:58:03.589Z,5.77
2019-01-30T05:00:32.883Z,5.30
2019-01-30T05:03:02.229Z,5.50
2019-01-30T05:05:31.807Z,5.70
2019-01-30T05:08:01.067Z,5.53
2019-01-30T05:10:30.383Z,5.17
2019-01-30T05:12:59.634Z,5.60
2019-01-30T05:15:29.796Z,5.53
2019-01-30T05:17:59.130Z,6.03
2019-01-30T05:20:28.439Z,6.20
2019-01-30T05:22:57.699Z,5.60
2019-01-30T05:25:27.012Z,6.13
2019-01-30T05:27:56.284Z,5.63
2019-01-30T05:30:28.607Z,5.90
2019-01-30T05:32:57.873Z,5.97
2019-01-30T05:35:27.307Z,5.73
2019-01-30T05:37:56.592Z,5.20
2019-01-30T05:40:26.261Z,5.67
2019-01-30T05:42:55.598Z,5.93
2019-01-30T05:45:25.212Z,6.00
2019-01-30T05:47:54.507Z,5.57
2019-01-30T05:50:24.115Z,5.40
2019-01-30T05:52:53.427Z,5.70
2019-01-30T05:55:22.714Z,5.93
2019-01-30T05:57:52.003Z,5.80
2019-01-30T06:00:32.990Z,5.93
2019-01-30T06:03:02.286Z,5.97
2019-01-30T06:05:31.824Z,5.60
2019-01-30T06:08:01.115Z,6.30
2019-01-30T06:10:30.794Z,6.00
2019-01-30T06:13:00.070Z,5.60
2019-01-30T06:15:29.375Z,6.03
2019-01-30T06:17:58.965Z,5.87
2019-01-30T06:20:29.164Z,6.10
2019-01-30T06:23:01.537Z,6.13
2019-01-30T06:25:29.793Z,6.00
2019-01-30T06:27:59.144Z,6.90
2019-01-30T06:30:28.403Z,6.37
2019-01-30T06:32:57.690Z,6.03
2019-01-30T06:35:26.998Z,5.87
2019-01-30T06:37:56.357Z,5.93
2019-01-30T06:40:27.846Z,6.70
2019-01-30T06:42:57.676Z,6.57
2019-01-30T06:45:26.952Z,5.90
2019-01-30T06:47:56.224Z,7.80
2019-01-30T06:50:25.591Z,7.53
2019-01-30T06:52:54.995Z,8.00
2019-01-30T06:55:24.324Z,8.07
2019-01-30T06:57:53.660Z,7.73
2019-01-30T07:00:25.081Z,7.73
2019-01-30T07:02:55.020Z,8.80
2019-01-30T07:05:24.315Z,10.03
2019-01-30T07:07:53.583Z,9.23
2019-01-30T07:10:24.687Z,9.90
2019-01-30T07:12:54.412Z,10.50
2019-01-30T07:15:24.199Z,9.67
2019-01-30T07:17:53.777Z,11.13
2019-01-30T07:20:23.195Z,10.60
2019-01-30T07:22:52.836Z,11.87
2019-01-30T07:25:22.843Z,11.60
2019-01-30T07:27:52.097Z,11.57
2019-01-30T07:30:32.888Z,10.87
2019-01-30T07:33:02.159Z,12.07
2019-01-30T07:35:31.564Z,12.53
2019-01-30T07:38:01.140Z,11.33
2019-01-30T07:40:30.551Z,12.10
2019-01-30T07:42:59.844Z,12.87
2019-01-30T07:45:30.385Z,13.23
2019-01-30T07:47:59.926Z,13.03
2019-01-30T07:50:29.210Z,12.50
2019-01-30T07:52:59.069Z,11.73
2019-01-30T07:55:28.881Z,11.27
2019-01-30T07:57:58.235Z,11.23
2019-01-30T08:00:30.296Z,12.13
2019-01-30T08:02:59.967Z,11.20
2019-01-30T08:05:29.663Z,11.73
2019-01-30T08:07:58.910Z,10.93
2019-01-30T08:10:28.179Z,11.70
2019-01-30T08:12:57.551Z,11.90
2019-01-30T08:15:27.148Z,11.57
2019-01-30T08:17:56.472Z,12.47
2019-01-30T08:20:25.781Z,11.63
2019-01-30T08:22:55.155Z,11.27
2019-01-30T08:25:24.997Z,12.30
2019-01-30T08:27:54.469Z,11.77
2019-01-30T08:30:32.781Z,12.17
2019-01-30T08:33:05.651Z,11.63
2019-01-30T08:35:34.585Z,11.30
2019-01-30T08:38:04.646Z,11.13
2019-01-30T08:40:33.919Z,11.20
2019-01-30T08:43:03.499Z,11.37
2019-01-30T08:45:33.522Z,11.87
2019-01-30T08:48:03.117Z,11.17
2019-01-30T08:50:32.483Z,11.30
2019-01-30T08:53:01.784Z,11.10
2019-01-30T08:55:31.049Z,10.90
2019-01-30T08:58:00.774Z,11.40
2019-01-30T09:00:30.931Z,11.87
2019-01-30T09:03:00.209Z,9.73
2019-01-30T09:05:29.511Z,11.67
2019-01-30T09:07:59.177Z,10.63
2019-01-30T09:10:28.573Z,10.33
2019-01-30T09:12:58.171Z,11.00
2019-01-30T09:15:28.445Z,11.20
2019-01-30T09:17:57.751Z,10.97
2019-01-30T09:20:27.435Z,9.43
2019-01-30T09:22:56.723Z,10.60
2019-01-30T09:25:28.032Z,10.33
2019-01-30T09:27:57.863Z,12.07
2019-01-30T09:30:29.585Z,11.37
2019-01-30T09:32:59.163Z,10.23
2019-01-30T09:35:28.460Z,10.97
2019-01-30T09:37:57.734Z,10.97
2019-01-30T09:40:27.481Z,10.00
2019-01-30T09:42:56.807Z,10.70
2019-01-30T09:45:26.092Z,10.23
2019-01-30T09:47:55.368Z,11.63
2019-01-30T09:50:24.835Z,10.43
2019-01-30T09:52:54.458Z,9.33
2019-01-30T09:55:24.047Z,9.80
2019-01-30T09:57:53.455Z,10.00
2019-01-30T10:00:25.875Z,9.47
2019-01-30T10:02:55.130Z,9.77
2019-01-30T10:05:24.414Z,9.70
2019-01-30T10:07:55.343Z,10.47
2019-01-30T10:10:27.494Z,9.07
2019-01-30T10:12:56.770Z,10.60
2019-01-30T10:15:28.631Z,10.00
2019-01-30T10:17:57.896Z,9.50
2019-01-30T10:20:27.850Z,9.50
2019-01-30T10:22:57.126Z,8.53
2019-01-30T10:25:26.654Z,9.10
2019-01-30T10:27:55.924Z,10.67
2019-01-30T10:30:27.635Z,9.57
2019-01-30T10:32:57.803Z,11.27
2019-01-30T10:35:27.240Z,10.00
2019-01-30T10:37:57.168Z,11.40
2019-01-30T10:40:26.501Z,10.80
2019-01-30T10:42:57.409Z,11.40
2019-01-30T10:45:27.362Z,10.50
2019-01-30T10:47:56.798Z,10.97
2019-01-30T10:50:27.347Z,12.70
2019-01-30T10:52:56.624Z,10.47
2019-01-30T10:55:27.822Z,10.67
2019-01-30T10:57:58.862Z,10.67
2019-01-30T11:00:31.025Z,13.73
2019-01-30T11:03:00.746Z,11.00
2019-01-30T11:05:30.320Z,11.30
2019-01-30T11:07:59.603Z,11.83
2019-01-30T11:10:29.088Z,12.67
2019-01-30T11:12:58.788Z,11.23
2019-01-30T11:15:28.790Z,12.60
2019-01-30T11:17:58.470Z,11.47
2019-01-30T11:20:28.153Z,12.53
2019-01-30T11:22:57.729Z,12.40
2019-01-30T11:25:32.738Z,11.33
2019-01-30T11:28:02.006Z,12.23
2019-01-30T11:30:32.282Z,12.27
2019-01-30T11:33:01.570Z,10.80
2019-01-30T11:35:30.901Z,10.80
2019-01-30T11:38:00.692Z,11.10
2019-01-30T11:40:30.486Z,11.90
2019-01-30T11:42:59.771Z,11.77
2019-01-30T11:45:40.261Z,11.73
2019-01-30T11:48:09.936Z,12.67
2019-01-30T11:50:40.649Z,13.90
2019-01-30T11:53:10.409Z,16.93
2019-01-30T11:55:39.694Z,13.07
2019-01-30T11:58:09.455Z,12.10
2019-01-30T12:00:42.338Z,12.60
2019-01-30T12:03:12.076Z,12.57
2019-01-30T12:05:42.578Z,14.33
2019-01-30T12:08:11.862Z,13.07
2019-01-30T12:10:41.242Z,13.33
2019-01-30T12:13:10.652Z,13.03
2019-01-30T12:15:40.001Z,13.47
2019-01-30T12:18:09.313Z,13.73
2019-01-30T12:20:38.641Z,13.80
2019-01-30T12:23:07.926Z,13.53
2019-01-30T12:25:37.218Z,14.33
2019-01-30T12:28:06.495Z,15.70
2019-01-30T12:30:35.762Z,19.40
2019-01-30T12:33:05.053Z,14.10
2019-01-30T12:35:34.315Z,13.57
2019-01-30T12:38:03.648Z,14.67
2019-01-30T12:40:33.287Z,13.30
2019-01-30T12:43:02.658Z,13.03
2019-01-30T12:45:33.559Z,14.50
2019-01-30T12:48:02.850Z,13.70
2019-01-30T12:50:32.307Z,13.43
2019-01-30T12:53:01.634Z,13.97
2019-01-30T12:55:31.210Z,14.93
2019-01-30T12:58:01.024Z,15.20
2019-01-30T13:00:32.992Z,16.43
2019-01-30T13:03:07.484Z,16.27
2019-01-30T13:05:38.684Z,17.43
2019-01-30T13:08:10.898Z,15.67
2019-01-30T13:10:40.199Z,15.87
2019-01-30T13:13:10.014Z,14.97
2019-01-30T13:15:39.745Z,14.03
2019-01-30T13:18:18.029Z,14.23
2019-01-30T13:20:40.534Z,14.03
2019-01-30T13:23:09.860Z,15.57
2019-01-30T13:25:39.134Z,13.90
2019-01-30T13:28:08.583Z,15.00
2019-01-30T13:30:40.068Z,18.23
2019-01-30T13:33:10.721Z,17.43
2019-01-30T13:35:40.046Z,18.40
2019-01-30T13:38:09.636Z,14.87
2019-01-30T13:40:41.158Z,13.53
2019-01-30T13:43:10.771Z,13.77
2019-01-30T13:45:40.205Z,13.30
2019-01-30T13:48:14.960Z,13.20
2019-01-30T13:50:44.299Z,14.67
2019-01-30T13:53:14.389Z,15.50
2019-01-30T13:55:43.903Z,15.83
2019-01-30T13:58:13.337Z,14.10
2019-01-30T14:00:42.714Z,16.63
2019-01-30T14:03:12.014Z,15.03
2019-01-30T14:05:41.375Z,16.77
2019-01-30T14:08:12.800Z,15.97
2019-01-30T14:10:42.082Z,16.17
2019-01-30T14:13:11.608Z,15.73
2019-01-30T14:15:41.173Z,16.27
2019-01-30T14:18:10.490Z,16.50
2019-01-30T14:20:39.797Z,16.30
2019-01-30T14:23:09.160Z,16.80
2019-01-30T14:25:40.832Z,16.90
2019-01-30T14:28:10.158Z,17.77
2019-01-30T14:30:40.496Z,18.13
2019-01-30T14:33:09.882Z,19.53
2019-01-30T14:35:45.179Z,17.77
2019-01-30T14:38:14.734Z,21.13
2019-01-30T14:40:44.154Z,17.57
2019-01-30T14:43:13.684Z,17.00
2019-01-30T14:45:43.016Z,17.03
2019-01-30T14:48:12.427Z,16.37
2019-01-30T14:50:42.012Z,16.57
2019-01-30T14:53:11.403Z,15.97
2019-01-30T14:55:40.679Z,17.63
2019-01-30T14:58:11.788Z,17.43
2019-01-30T15:00:41.780Z,17.37
2019-01-30T15:03:11.497Z,18.30
2019-01-30T15:05:40.937Z,17.77
2019-01-30T15:08:10.740Z,17.00
2019-01-30T15:10:40.450Z,16.87
2019-01-30T15:13:10.039Z,18.73
2019-01-30T15:15:39.647Z,17.37
2019-01-30T15:18:09.399Z,19.20
2019-01-30T15:20:39.272Z,17.27
2019-01-30T15:23:09.641Z,18.03
2019-01-30T15:25:39.281Z,17.97
2019-01-30T15:28:09.226Z,18.93
2019-01-30T15:30:41.075Z,17.80
2019-01-30T15:33:10.646Z,19.20
2019-01-30T15:35:39.951Z,18.53
2019-01-30T15:38:11.701Z,19.37
2019-01-30T15:40:41.276Z,17.87
2019-01-30T15:43:10.919Z,18.53
2019-01-30T15:45:40.191Z,18.27
2019-01-30T15:48:09.751Z,16.23
2019-01-30T15:50:39.959Z,16.43
2019-01-30T15:53:18.320Z,16.47
2019-01-30T15:55:47.602Z,16.50
2019-01-30T15:58:17.267Z,17.03
2019-01-30T16:00:55.204Z,17.37
2019-01-30T16:03:24.500Z,16.43
2019-01-30T16:05:53.771Z,17.83
2019-01-30T16:08:23.479Z,17.13
2019-01-30T16:10:52.757Z,17.77
2019-01-30T16:13:22.184Z,18.83
2019-01-30T16:15:57.072Z,20.23
2019-01-30T16:18:26.749Z,20.27
2019-01-30T16:20:56.529Z,22.20
2019-01-30T16:23:25.790Z,22.10
2019-01-30T16:25:55.107Z,22.27
2019-01-30T16:28:24.396Z,23.53
2019-01-30T16:30:53.703Z,23.70
2019-01-30T16:33:22.977Z,25.23
2019-01-30T16:35:56.043Z,25.47
2019-01-30T16:38:23.263Z,26.57
2019-01-30T16:40:53.000Z,25.37
2019-01-30T16:43:22.334Z,27.13
2019-01-30T16:45:51.984Z,28.50
2019-01-30T16:48:21.811Z,27.80
2019-01-30T16:50:51.464Z,27.77
2019-01-30T16:53:20.819Z,28.80
2019-01-30T16:55:50.103Z,28.33
2019-01-30T16:58:19.642Z,28.93
2019-01-30T17:00:48.951Z,30.03
2019-01-30T17:03:18.263Z,30.50
2019-01-30T17:05:47.853Z,29.87
2019-01-30T17:08:17.145Z,30.77
2019-01-30T17:10:46.761Z,30.47
2019-01-30T17:13:16.559Z,32.37
2019-01-30T17:15:46.189Z,31.33
2019-01-30T17:18:15.675Z,30.50
2019-01-30T17:20:44.973Z,31.07
2019-01-30T17:23:14.246Z,30.63
2019-01-30T17:25:43.897Z,32.30
2019-01-30T17:28:13.510Z,31.77
2019-01-30T17:30:55.800Z,31.83
2019-01-30T17:33:26.485Z,31.77
2019-01-30T17:35:56.020Z,32.00
2019-01-30T17:38:25.589Z,31.27
2019-01-30T17:40:57.671Z,33.53
2019-01-30T17:43:26.989Z,32.57
2019-01-30T17:45:56.367Z,33.60
2019-01-30T17:48:25.751Z,34.07
2019-01-30T17:50:55.345Z,33.93
2019-01-30T17:53:24.628Z,34.43
2019-01-30T17:55:54.186Z,36.23
2019-01-30T17:58:23.487Z,34.57
2019-01-30T18:00:58.738Z,33.60
2019-01-30T18:03:28.067Z,34.77
2019-01-30T18:05:57.683Z,33.10
2019-01-30T18:08:27.065Z,34.47
2019-01-30T18:10:56.325Z,34.73
2019-01-30T18:13:25.610Z,35.50
2019-01-30T18:15:55.155Z,35.47
2019-01-30T18:18:24.467Z,33.10
2019-01-30T18:20:53.742Z,34.40
2019-01-30T18:23:23.378Z,33.43
2019-01-30T18:25:52.681Z,34.87
2019-01-30T18:28:21.961Z,34.87
2019-01-30T18:30:51.366Z,34.00
2019-01-30T18:33:20.806Z,34.30
2019-01-30T18:35:50.144Z,33.73
2019-01-30T18:38:19.432Z,32.57
2019-01-30T18:40:48.770Z,32.07
2019-01-30T18:43:18.134Z,31.37
2019-01-30T18:45:47.433Z,31.63
2019-01-30T18:48:17.006Z,29.37
2019-01-30T18:50:46.283Z,30.73
2019-01-30T18:53:15.571Z,29.60
2019-01-30T18:55:44.966Z,30.37
2019-01-30T18:58:14.332Z,28.70
2019-01-30T19:00:44.662Z,30.67
2019-01-30T19:03:18.262Z,29.60
2019-01-30T19:05:48.143Z,27.73
2019-01-30T19:08:17.696Z,28.20
2019-01-30T19:10:46.952Z,28.40
2019-01-30T19:13:16.255Z,29.53
2019-01-30T19:15:45.840Z,29.73
2019-01-30T19:18:16.287Z,31.37
2019-01-30T19:20:48.156Z,27.83
2019-01-30T19:23:17.550Z,28.83
2019-01-30T19:25:47.223Z,27.73
2019-01-30T19:28:16.842Z,28.40
2019-01-30T19:30:46.152Z,27.00
2019-01-30T19:33:15.449Z,27.20
2019-01-30T19:35:45.070Z,27.30
2019-01-30T19:38:14.423Z,27.17
2019-01-30T19:40:44.076Z,25.43
2019-01-30T19:43:13.380Z,26.07
2019-01-30T19:45:42.642Z,24.97
2019-01-30T19:48:11.973Z,23.33
2019-01-30T19:50:41.247Z,22.33
2019-01-30T19:53:11.003Z,21.83
2019-01-30T19:55:40.661Z,24.77
2019-01-30T19:58:12.206Z,20.63
2019-01-30T20:00:43.816Z,20.60
2019-01-30T20:03:15.812Z,19.27
2019-01-30T20:05:45.071Z,18.93
2019-01-30T20:08:14.779Z,17.73
2019-01-30T20:10:44.351Z,18.47
2019-01-30T20:13:13.748Z,17.47
2019-01-30T20:15:43.056Z,17.07
2019-01-30T20:18:12.747Z,18.57
2019-01-30T20:20:42.102Z,18.73
2019-01-30T20:23:14.064Z,16.80
2019-01-30T20:25:44.057Z,17.63
2019-01-30T20:28:13.416Z,16.30
2019-01-30T20:30:42.709Z,16.93
2019-01-30T20:33:12.010Z,17.00
2019-01-30T20:35:41.376Z,16.97
2019-01-30T20:38:10.694Z,16.07
2019-01-30T20:40:40.059Z,16.00
2019-01-30T20:43:09.408Z,16.80
2019-01-30T20:45:38.813Z,16.07
2019-01-30T20:48:08.568Z,16.40
2019-01-30T20:50:37.915Z,17.20
2019-01-30T20:53:07.317Z,17.03
2019-01-30T20:55:36.685Z,20.33
2019-01-30T20:58:06.609Z,16.93
2019-01-30T21:00:39.552Z,19.37
2019-01-30T21:03:09.393Z,18.40
2019-01-30T21:05:39.103Z,17.33
2019-01-30T21:08:08.837Z,17.43
2019-01-30T21:10:42.724Z,18.00
2019-01-30T21:13:12.475Z,17.63
2019-01-30T21:15:46.977Z,17.53
2019-01-30T21:18:18.220Z,17.50
2019-01-30T21:20:47.435Z,17.87
2019-01-30T21:23:17.095Z,19.03
2019-01-30T21:25:46.402Z,19.27
2019-01-30T21:28:16.202Z,17.70
2019-01-30T21:30:45.920Z,17.17
2019-01-30T21:33:15.243Z,19.23
2019-01-30T21:35:45.063Z,18.47
2019-01-30T21:38:14.442Z,18.93
2019-01-30T21:40:44.060Z,18.40
2019-01-30T21:43:13.440Z,17.77
2019-01-30T21:45:42.733Z,17.47
2019-01-30T21:48:12.079Z,17.30
2019-01-30T21:50:41.427Z,18.23
2019-01-30T21:53:11.589Z,16.80
2019-01-30T21:55:40.866Z,17.83
2019-01-30T21:58:10.130Z,17.77
2019-01-30T22:00:39.427Z,17.77
2019-01-30T22:03:08.690Z,16.33
2019-01-30T22:05:38.381Z,17.30
2019-01-30T22:08:07.703Z,17.70
2019-01-30T22:10:37.683Z,16.90
2019-01-30T22:13:06.943Z,16.47
2019-01-30T22:15:36.223Z,16.30
2019-01-30T22:18:06.191Z,16.87
2019-01-30T22:20:35.829Z,16.00
2019-01-30T22:23:05.523Z,17.17
2019-01-30T22:25:34.813Z,17.27
2019-01-30T22:28:04.676Z,16.93
2019-01-30T22:30:35.937Z,16.13
2019-01-30T22:33:06.184Z,15.63
2019-01-30T22:35:35.465Z,14.90
2019-01-30T22:38:12.127Z,15.43
2019-01-30T22:40:36.248Z,15.93
2019-01-30T22:43:06.649Z,13.63
2019-01-30T22:45:35.967Z,13.87
2019-01-30T22:48:07.470Z,14.43
2019-01-30T22:50:36.778Z,13.73
2019-01-30T22:53:06.171Z,12.80
2019-01-30T22:55:36.264Z,12.70
2019-01-30T22:58:05.999Z,12.17
2019-01-30T23:01:29.451Z,11.70
2019-01-30T23:04:44.488Z,12.53
2019-01-30T23:07:18.130Z,12.70
2019-01-30T23:10:31.381Z,12.37
2019-01-30T23:13:28.240Z,12.73
2019-01-30T23:16:44.560Z,12.70
2019-01-30T23:19:47.510Z,10.73
2019-01-30T23:22:53.470Z,9.67
2019-01-30T23:25:53.106Z,9.67
2019-01-30T23:29:05.887Z,10.03
2019-01-30T23:32:12.427Z,11.03
2019-01-30T23:35:05.217Z,8.13
2019-01-30T23:37:53.384Z,8.93
2019-01-30T23:41:00.824Z,9.97
2019-01-30T23:43:52.684Z,8.67
2019-01-30T23:47:01.956Z,8.97
2019-01-30T23:50:08.336Z,7.90
2019-01-30T23:53:30.097Z,7.37
2019-01-30T23:56:26.822Z,7.77
2019-01-30T23:59:23.454Z,7.27
